Englewood, South Dakota
Current Conditions -  °F | °C
As of 2:15 AM on Thursday 18 Dec 2014 (Local Time) from KSPF Reporting Station
NA  
Wind Chill: 19°   Ceiling: NA
Heat Index: 19°   Visibility: NA
Dew Point: 18°   Wind: 0mph
Humidity: 93%   Direction: NA
Pressure: 29.96"   Gusts: NA
Location:  44.253°N, 103.912°W
Report Text: KSPF 180915Z AUTO 00000KT M07/M08 A2996 RMK AO2
Loading
Personal Weather Stations






























Interactive Weather Map New forecast layout! Learn more

10-Day Weather Forecast

Advertisements
Track Severe Weather on mobile